Time;durP1;ratioP1;P1;durP2;ratioP2;P2;SDS_P1;SDS_P2;PMS_P1;PMS_P2;Temp;Humidity;BMP_temperature;BMP_pressure;BME280_temperature;BME280_humidity;BME280_pressure;Samples;Min_cycle;Max_cycle;Signal;HPM_P1;HPM_P2
2022/06/03 00:02:42;;;;;;;5.20;3.70;;;11.20;99.90;;;;;;4950859;28;20137;-70
2022/06/03 00:05:43;;;;;;;7.25;3.90;;;11.20;99.90;;;;;;4990010;28;20051;-72
2022/06/03 00:08:46;;;;;;;6.18;4.00;;;11.20;99.90;;;;;;4956700;28;20058;-69
2022/06/03 00:11:30;;;;;;;6.45;3.90;;;11.20;99.90;;;;;;4973542;28;20415;-69
2022/06/03 00:14:33;;;;;;;6.55;3.75;;;11.20;99.90;;;;;;4973497;28;20094;-70
2022/06/03 00:17:32;;;;;;;7.40;4.30;;;11.20;99.90;;;;;;4973302;28;20050;-70
2022/06/03 00:20:21;;;;;;;5.93;3.95;;;11.10;99.90;;;;;;4973309;28;20503;-70
2022/06/03 00:23:05;;;;;;;7.25;3.75;;;11.10;99.90;;;;;;4973151;28;20150;-70
2022/06/03 00:25:47;;;;;;;9.38;3.72;;;11.10;99.90;;;;;;4973113;28;20051;-69
2022/06/03 00:28:56;;;;;;;6.00;3.95;;;11.10;99.90;;;;;;4966305;28;20062;-70
2022/06/03 00:31:39;;;;;;;6.45;4.25;;;11.10;99.90;;;;;;4994813;28;20134;-71
2022/06/03 00:34:30;;;;;;;7.63;3.88;;;11.10;99.90;;;;;;5007311;28;20053;-70
2022/06/03 00:37:29;;;;;;;6.60;4.18;;;11.10;99.90;;;;;;5014221;28;20052;-70
2022/06/03 00:40:03;;;;;;;5.63;3.95;;;11.10;99.90;;;;;;5014362;28;20426;-70
2022/06/03 00:42:51;;;;;;;9.68;4.35;;;11.10;99.90;;;;;;5014239;28;20079;-70
2022/06/03 00:46:07;;;;;;;7.57;4.13;;;11.00;99.90;;;;;;4996760;28;20058;-73
2022/06/03 00:48:46;;;;;;;5.95;3.83;;;11.00;99.90;;;;;;4953471;29;20051;-72
2022/06/03 00:51:26;;;;;;;6.00;3.40;;;10.90;99.90;;;;;;4953588;29;20076;-69
2022/06/03 00:54:15;;;;;;;6.85;3.63;;;10.80;99.90;;;;;;4953581;29;20086;-70
2022/06/03 00:57:01;;;;;;;5.63;3.88;;;10.80;99.90;;;;;;4910456;29;20485;-70
2022/06/03 00:59:54;;;;;;;11.70;4.25;;;10.80;99.90;;;;;;4918631;29;20080;-72
2022/06/03 01:02:31;;;;;;;5.82;3.47;;;10.70;99.90;;;;;;4934006;29;20051;-70
2022/06/03 01:05:05;;;;;;;5.45;3.78;;;10.70;99.90;;;;;;4933961;29;20058;-70
2022/06/03 01:07:52;;;;;;;7.75;4.18;;;10.70;99.90;;;;;;4933995;29;20103;-72
2022/06/03 01:10:48;;;;;;;8.98;3.95;;;10.80;99.90;;;;;;4918417;29;20155;-70
2022/06/03 01:13:19;;;;;;;6.10;3.83;;;10.70;99.90;;;;;;4933889;29;20160;-73
2022/06/03 01:15:50;;;;;;;6.80;4.25;;;10.70;99.90;;;;;;4918278;29;20062;-71
2022/06/03 01:18:34;;;;;;;7.35;4.25;;;10.80;99.90;;;;;;4918340;29;20504;-70
2022/06/03 01:21:10;;;;;;;7.15;3.97;;;10.80;99.90;;;;;;4933921;29;20056;-69
2022/06/03 01:24:09;;;;;;;6.45;4.05;;;10.80;99.90;;;;;;4952929;29;20047;-69
2022/06/03 01:26:47;;;;;;;7.30;3.90;;;10.70;99.90;;;;;;4944985;29;20051;-72
2022/06/03 01:29:31;;;;;;;8.38;4.32;;;11.30;99.90;;;;;;4953035;29;20520;-70
2022/06/03 01:32:28;;;;;;;6.10;3.97;;;10.70;99.90;;;;;;4952908;29;20082;-70
2022/06/03 01:35:28;;;;;;;6.60;4.03;;;10.70;99.90;;;;;;4993159;28;20466;-70
2022/06/03 01:38:01;;;;;;;6.15;4.72;;;10.70;99.90;;;;;;4952885;29;20146;-70
2022/06/03 01:41:01;;;;;;;7.47;4.65;;;10.60;99.90;;;;;;4952800;29;20056;-70
2022/06/03 01:43:36;;;;;;;6.30;4.22;;;10.70;99.90;;;;;;4952867;29;20047;-68
2022/06/03 01:46:15;;;;;;;10.57;4.15;;;10.70;99.90;;;;;;4952917;29;20055;-70
2022/06/03 01:48:43;;;;;;;7.22;4.22;;;10.70;99.90;;;;;;4936919;29;20063;-70
2022/06/03 01:51:32;;;;;;;6.43;3.90;;;10.70;99.90;;;;;;4937007;29;20055;-72
2022/06/03 01:54:01;;;;;;;7.10;4.35;;;10.70;99.90;;;;;;4952812;29;20051;-72
2022/06/03 01:56:47;;;;;;;6.68;4.22;;;10.70;99.90;;;;;;4952651;29;20050;-71
2022/06/03 01:59:42;;;;;;;5.93;4.13;;;10.70;99.90;;;;;;4936934;29;20066;-70
2022/06/03 02:02:29;;;;;;;9.07;4.72;;;10.70;99.90;;;;;;4936778;29;20106;-70
2022/06/03 02:05:07;;;;;;;5.00;4.13;;;10.60;99.90;;;;;;4936882;29;20043;-70
2022/06/03 02:07:54;;;;;;;6.93;3.78;;;10.70;99.90;;;;;;4952619;29;20056;-72
2022/06/03 02:10:44;;;;;;;8.40;4.95;;;10.70;99.90;;;;;;4931852;29;20083;-70
2022/06/03 02:13:31;;;;;;;6.22;4.28;;;10.60;99.90;;;;;;4964915;28;20188;-69
2022/06/03 02:16:21;;;;;;;7.13;4.32;;;10.80;99.90;;;;;;4997201;28;20046;-70
2022/06/03 02:19:22;;;;;;;8.25;4.78;;;10.60;99.90;;;;;;4997487;28;20057;-69
2022/06/03 02:22:09;;;;;;;7.38;4.93;;;10.60;99.90;;;;;;4977736;28;20531;-70
2022/06/03 02:24:56;;;;;;;12.70;5.03;;;10.50;99.90;;;;;;4996359;28;20046;-68
2022/06/03 02:27:47;;;;;;;9.82;5.03;;;10.50;99.90;;;;;;4976593;28;20484;-70
2022/06/03 02:30:46;;;;;;;11.63;5.30;;;11.40;99.90;;;;;;4991241;28;20158;-73
2022/06/03 02:33:30;;;;;;;11.60;4.28;;;10.50;99.90;;;;;;4996809;28;20129;-70
2022/06/03 02:36:11;;;;;;;8.60;4.93;;;10.40;99.90;;;;;;4997023;28;20100;-70
2022/06/03 02:39:04;;;;;;;6.22;4.00;;;10.40;99.90;;;;;;4996850;28;20065;-69
2022/06/03 02:42:07;;;;;;;6.22;3.75;;;10.40;99.90;;;;;;4979447;28;20061;-70
2022/06/03 02:44:42;;;;;;;8.13;4.47;;;10.40;99.90;;;;;;4979600;28;20173;-68
2022/06/03 02:47:29;;;;;;;6.28;4.50;;;10.40;99.90;;;;;;4996638;28;20111;-70
2022/06/03 02:50:28;;;;;;;8.48;5.15;;;10.30;99.90;;;;;;4996416;28;20566;-71
2022/06/03 02:53:12;;;;;;;7.53;4.60;;;10.30;99.90;;;;;;4996551;28;20108;-72
2022/06/03 02:56:23;;;;;;;8.02;4.68;;;10.30;99.90;;;;;;4988568;28;20531;-72
2022/06/03 02:59:09;;;;;;;6.45;4.70;;;10.30;99.90;;;;;;4955480;29;20059;-70
2022/06/03 03:01:52;;;;;;;7.03;4.75;;;10.20;99.90;;;;;;4955499;29;20146;-71
2022/06/03 03:04:30;;;;;;;7.72;4.82;;;10.20;99.90;;;;;;4939576;29;20066;-72
2022/06/03 03:07:01;;;;;;;8.25;4.38;;;11.30;99.90;;;;;;4955459;29;20113;-70
2022/06/03 03:09:45;;;;;;;7.43;4.55;;;10.20;99.90;;;;;;4965645;28;20209;-70
2022/06/03 03:12:30;;;;;;;9.95;5.03;;;10.20;99.90;;;;;;4974651;28;20057;-70
2022/06/03 03:15:21;;;;;;;9.90;4.72;;;10.20;99.90;;;;;;4958570;28;20154;-71
2022/06/03 03:18:13;;;;;;;10.50;5.03;;;10.20;99.90;;;;;;4942671;28;20091;-70
2022/06/03 03:20:49;;;;;;;8.05;5.22;;;10.20;99.90;;;;;;4973164;28;20082;-70
2022/06/03 03:23:45;;;;;;;7.88;5.18;;;10.20;99.90;;;;;;4958243;28;20059;-70
2022/06/03 03:26:43;;;;;;;16.50;4.97;;;10.20;99.90;;;;;;4958167;28;20066;-70
2022/06/03 03:29:40;;;;;;;6.88;5.03;;;10.20;99.90;;;;;;4989630;28;20141;-70
2022/06/03 03:32:24;;;;;;;8.15;5.28;;;10.20;99.90;;;;;;5015568;28;20046;-71
2022/06/03 03:35:19;;;;;;;8.70;5.00;;;10.10;99.90;;;;;;4997844;28;20137;-70
2022/06/03 03:38:27;;;;;;;7.63;6.00;;;10.10;99.90;;;;;;5014988;28;20453;-70
2022/06/03 03:40:58;;;;;;;10.77;6.35;;;10.10;99.90;;;;;;4935622;29;20214;-72
2022/06/03 03:43:45;;;;;;;9.73;5.57;;;10.20;99.90;;;;;;4935590;29;20508;-70
2022/06/03 03:46:29;;;;;;;10.20;5.25;;;10.10;99.90;;;;;;4929743;29;20060;-70
2022/06/03 03:49:19;;;;;;;8.48;5.00;;;10.10;99.90;;;;;;4935516;29;20056;-71
2022/06/03 03:52:06;;;;;;;8.95;5.45;;;10.10;99.90;;;;;;4935517;29;20146;-70
2022/06/03 03:54:56;;;;;;;10.77;5.10;;;10.10;99.90;;;;;;4935163;29;20135;-70
2022/06/03 03:57:43;;;;;;;10.15;5.82;;;10.10;99.90;;;;;;4930798;29;20058;-71
2022/06/03 04:00:46;;;;;;;9.32;5.50;;;10.10;99.90;;;;;;4935383;29;20056;-70
2022/06/03 04:03:27;;;;;;;8.05;5.35;;;10.10;99.90;;;;;;4935070;29;20118;-72
2022/06/03 04:06:39;;;;;;;10.38;5.30;;;10.50;99.90;;;;;;4935097;29;20111;-70
2022/06/03 04:09:32;;;;;;;11.13;5.78;;;10.10;99.90;;;;;;4934863;28;20098;-72
2022/06/03 04:12:34;;;;;;;9.13;6.05;;;10.10;99.90;;;;;;4935124;29;20098;-70
2022/06/03 04:15:30;;;;;;;8.55;5.18;;;10.10;99.90;;;;;;4919324;29;20067;-70
2022/06/03 04:18:01;;;;;;;9.65;6.38;;;10.10;99.90;;;;;;4954431;28;20090;-73
2022/06/03 04:20:57;;;;;;;11.13;5.78;;;10.10;99.90;;;;;;4973271;28;20050;-70
2022/06/03 04:23:53;;;;;;;9.88;6.00;;;10.20;99.90;;;;;;4968747;28;20074;-72
2022/06/03 04:26:57;;;;;;;9.88;5.25;;;10.20;99.90;;;;;;4968327;28;20077;-71
2022/06/03 04:29:50;;;;;;;8.57;5.60;;;10.20;99.90;;;;;;4968843;28;20420;-70
2022/06/03 04:32:43;;;;;;;8.13;5.45;;;10.30;99.90;;;;;;4967467;28;20145;-70
2022/06/03 04:35:46;;;;;;;8.75;6.32;;;10.30;99.90;;;;;;4966850;28;20050;-70
2022/06/03 04:38:23;;;;;;;9.85;5.50;;;10.30;99.90;;;;;;4951149;28;20057;-73
2022/06/03 04:40:54;;;;;;;8.60;6.53;;;10.40;99.90;;;;;;4973156;28;20053;-73
2022/06/03 04:43:38;;;;;;;8.32;5.35;;;10.40;99.90;;;;;;4972893;28;20082;-71
2022/06/03 04:46:52;;;;;;;8.82;5.60;;;10.50;99.90;;;;;;4971341;28;20149;-70
2022/06/03 04:49:23;;;;;;;11.93;6.55;;;10.50;99.90;;;;;;4972638;28;20530;-71
2022/06/03 04:52:26;;;;;;;9.30;5.60;;;10.60;99.90;;;;;;4956935;28;20046;-70
2022/06/03 04:55:36;;;;;;;11.55;6.18;;;10.60;99.90;;;;;;4972645;28;20094;-70
2022/06/03 04:58:35;;;;;;;13.75;6.20;;;10.70;99.90;;;;;;4966775;28;20090;-73
2022/06/03 05:01:41;;;;;;;7.95;5.00;;;10.70;99.90;;;;;;4972648;28;20051;-70
2022/06/03 05:04:43;;;;;;;8.68;5.63;;;10.80;99.90;;;;;;4988636;28;20553;-70
2022/06/03 05:07:15;;;;;;;9.38;5.20;;;10.80;99.90;;;;;;4972565;28;20062;-70
2022/06/03 05:09:43;;;;;;;12.27;4.95;;;10.90;99.90;;;;;;4968876;28;20478;-72
2022/06/03 05:12:21;;;;;;;7.45;4.70;;;10.90;99.90;;;;;;4991837;28;20133;-71
2022/06/03 05:15:27;;;;;;;8.13;4.82;;;11.00;99.90;;;;;;4991883;28;20495;-70
2022/06/03 05:18:05;;;;;;;8.88;5.40;;;11.10;99.90;;;;;;4991769;28;20050;-70
2022/06/03 05:21:13;;;;;;;7.18;5.28;;;11.10;99.90;;;;;;4991723;28;20061;-70
2022/06/03 05:24:03;;;;;;;10.83;6.37;;;11.20;99.90;;;;;;4975560;28;20054;-68
2022/06/03 05:27:18;;;;;;;9.45;4.82;;;11.30;99.90;;;;;;4993579;28;20066;-71
2022/06/03 05:30:18;;;;;;;8.50;5.28;;;11.40;99.90;;;;;;4952921;29;20055;-70
2022/06/03 05:33:25;;;;;;;7.22;5.40;;;11.50;99.90;;;;;;4952843;29;20078;-70
2022/06/03 05:36:12;;;;;;;9.93;5.07;;;12.10;99.90;;;;;;4952760;29;20548;-70
2022/06/03 05:39:14;;;;;;;9.77;5.18;;;11.60;99.90;;;;;;4952899;29;20082;-71
2022/06/03 05:45:15;;;;;;;9.85;4.82;;;11.80;99.90;;;;;;4954858;28;20117;-72
2022/06/03 05:48:11;;;;;;;13.25;5.72;;;11.90;99.90;;;;;;4956826;29;20051;-69
2022/06/03 05:51:06;;;;;;;9.05;5.30;;;12.00;99.90;;;;;;4956696;29;20051;-72
2022/06/03 05:54:00;;;;;;;8.80;5.72;;;12.00;99.90;;;;;;4956742;29;20055;-68
2022/06/03 05:56:38;;;;;;;7.20;5.05;;;12.10;99.90;;;;;;4956619;29;20566;-71
2022/06/03 05:59:22;;;;;;;8.55;5.65;;;12.20;99.90;;;;;;4956590;29;20062;-69
2022/06/03 06:02:15;;;;;;;10.57;5.80;;;12.20;99.90;;;;;;4956551;29;20047;-70
2022/06/03 06:05:03;;;;;;;8.70;5.03;;;12.30;99.90;;;;;;4940406;29;20102;-71
2022/06/03 06:07:38;;;;;;;8.75;5.60;;;12.40;99.90;;;;;;4956501;29;20051;-70
2022/06/03 06:10:29;;;;;;;10.07;5.28;;;12.80;99.90;;;;;;4956204;29;20063;-70
2022/06/03 06:13:33;;;;;;;7.05;4.60;;;12.50;99.90;;;;;;4997262;28;20050;-70
2022/06/03 06:16:06;;;;;;;6.65;4.65;;;12.70;99.90;;;;;;4997350;28;20050;-71
2022/06/03 06:19:05;;;;;;;8.38;5.00;;;12.70;99.90;;;;;;4997284;28;20046;-72
2022/06/03 06:21:48;;;;;;;7.45;4.40;;;12.80;99.90;;;;;;4997016;28;20554;-70
2022/06/03 06:24:18;;;;;;;7.18;3.83;;;12.90;99.90;;;;;;4997200;28;20077;-70
2022/06/03 06:27:18;;;;;;;7.35;4.38;;;13.00;99.90;;;;;;4995985;28;20050;-70
2022/06/03 06:30:04;;;;;;;6.47;3.70;;;13.00;99.90;;;;;;4979787;28;20125;-70
2022/06/03 06:32:39;;;;;;;4.18;2.80;;;13.10;99.90;;;;;;4996473;28;20054;-70
2022/06/03 06:35:42;;;;;;;4.75;2.47;;;13.20;99.90;;;;;;4996903;28;20046;-70
2022/06/03 06:38:14;;;;;;;6.88;2.63;;;13.30;99.90;;;;;;4996764;28;20122;-70
2022/06/03 06:41:07;;;;;;;3.17;2.08;;;13.30;99.90;;;;;;4996685;28;20125;-73
2022/06/03 06:43:50;;;;;;;6.38;1.95;;;13.40;99.90;;;;;;4996723;28;20085;-70
2022/06/03 06:46:42;;;;;;;4.35;2.00;;;13.50;99.90;;;;;;4996745;28;20050;-70
2022/06/03 06:49:32;;;;;;;4.25;2.42;;;13.60;99.90;;;;;;4969909;28;20069;-71
2022/06/03 06:52:12;;;;;;;4.20;1.73;;;13.60;99.90;;;;;;4996741;28;20108;-70
2022/06/03 06:55:09;;;;;;;5.32;1.98;;;13.70;99.90;;;;;;4996251;28;20072;-71
2022/06/03 06:57:47;;;;;;;3.72;1.95;;;13.80;99.90;;;;;;4995061;28;20050;-70
2022/06/03 07:00:22;;;;;;;3.65;1.90;;;13.90;99.90;;;;;;4996529;28;20042;-71
2022/06/03 07:02:47;;;;;;;3.22;1.73;;;14.00;99.90;;;;;;4996353;28;20042;-71
2022/06/03 07:05:25;;;;;;;3.65;1.50;;;14.00;99.90;;;;;;4996323;28;20047;-71
2022/06/03 07:07:54;;;;;;;4.15;1.40;;;14.10;99.90;;;;;;4996240;28;20053;-70
2022/06/03 07:10:27;;;;;;;4.43;1.52;;;14.20;99.90;;;;;;5010722;28;20061;-71
2022/06/03 07:13:05;;;;;;;4.10;1.52;;;14.30;99.90;;;;;;5015883;28;20037;-72
2022/06/03 07:15:48;;;;;;;4.50;1.83;;;14.30;99.90;;;;;;5015778;28;20061;-71
2022/06/03 07:21:14;;;;;;;2.78;1.50;;;14.60;99.90;;;;;;5015786;28;20141;-69
2022/06/03 07:23:50;;;;;;;6.10;1.42;;;14.60;99.90;;;;;;5015607;28;20046;-71
2022/06/03 07:26:38;;;;;;;3.17;1.37;;;14.60;99.90;;;;;;5007246;28;20085;-72
2022/06/03 07:29:06;;;;;;;2.90;1.42;;;14.70;99.90;;;;;;5023726;28;20050;-70
2022/06/03 07:32:00;;;;;;;3.20;1.70;;;15.10;99.90;;;;;;4998110;28;20136;-71
2022/06/03 07:34:32;;;;;;;2.95;1.50;;;14.80;99.90;;;;;;4998154;28;20045;-73
2022/06/03 07:37:11;;;;;;;2.65;1.58;;;15.60;99.90;;;;;;5015416;28;20053;-71
2022/06/03 07:39:44;;;;;;;2.42;1.30;;;15.50;99.90;;;;;;5015077;28;20453;-70
2022/06/03 07:42:31;;;;;;;2.75;1.35;;;15.00;99.90;;;;;;4998052;28;20049;-70
2022/06/03 07:45:12;;;;;;;4.15;1.45;;;15.10;99.90;;;;;;5013333;28;20136;-70
2022/06/03 07:47:38;;;;;;;4.30;1.83;;;15.10;99.90;;;;;;5015158;28;20050;-72
2022/06/03 07:50:13;;;;;;;3.65;2.58;;;15.70;99.90;;;;;;5014984;28;20088;-71
2022/06/03 07:52:51;;;;;;;5.07;1.88;;;15.30;99.90;;;;;;4995254;28;20050;-73
2022/06/03 07:55:26;;;;;;;4.55;1.98;;;15.30;99.90;;;;;;5008840;28;20054;-71
2022/06/03 07:57:56;;;;;;;3.28;1.65;;;15.30;99.90;;;;;;4997567;28;20507;-71
2022/06/03 08:00:23;;;;;;;4.97;2.03;;;15.50;99.90;;;;;;4997345;28;20410;-70
2022/06/03 08:03:15;;;;;;;2.92;1.80;;;16.20;99.90;;;;;;5014560;28;20068;-71
2022/06/03 08:05:46;;;;;;;4.28;1.88;;;15.60;99.90;;;;;;4997557;28;20049;-70
2022/06/03 08:11:05;;;;;;;5.82;2.30;;;15.70;99.90;;;;;;4995023;28;20163;-70
2022/06/03 08:13:39;;;;;;;3.75;1.77;;;15.80;99.90;;;;;;4977959;28;20479;-72
2022/06/03 08:16:11;;;;;;;3.20;1.60;;;15.80;99.90;;;;;;4995060;28;20415;-71
2022/06/03 08:18:42;;;;;;;6.13;1.70;;;15.90;99.90;;;;;;4994963;28;20059;-71
2022/06/03 08:21:15;;;;;;;3.38;1.92;;;16.00;99.90;;;;;;4994709;28;20046;-72
2022/06/03 08:23:42;;;;;;;3.20;1.75;;;16.00;99.90;;;;;;4994613;28;20080;-73
2022/06/03 08:26:13;;;;;;;3.13;1.45;;;16.10;99.90;;;;;;4986883;28;20054;-72
2022/06/03 08:28:46;;;;;;;3.97;2.03;;;16.20;99.90;;;;;;5010328;28;20426;-70
2022/06/03 08:31:12;;;;;;;3.55;1.73;;;16.20;99.90;;;;;;4977616;28;20050;-70
2022/06/03 08:33:47;;;;;;;3.97;1.80;;;16.30;99.90;;;;;;4994639;28;20129;-73
2022/06/03 08:36:21;;;;;;;3.53;2.00;;;16.30;99.90;;;;;;4977336;28;20078;-71
2022/06/03 08:39:25;;;;;;;4.65;1.88;;;16.50;99.90;;;;;;4994701;28;20042;-72
2022/06/03 08:42:09;;;;;;;6.15;1.63;;;16.40;99.90;;;;;;4972819;28;20496;-71
2022/06/03 08:44:38;;;;;;;2.90;1.60;;;16.50;99.90;;;;;;4972799;28;20441;-70
2022/06/03 08:47:15;;;;;;;9.88;1.98;;;16.50;99.90;;;;;;4989396;28;20062;-70
2022/06/03 08:49:57;;;;;;;;;;;16.60;99.90;;;;;;4973261;28;20055;-72
2022/06/03 08:52:37;;;;;;;4.68;1.85;;;16.60;99.90;;;;;;4989280;28;19965;-71
2022/06/03 08:55:21;;;;;;;4.57;1.88;;;16.70;99.90;;;;;;4972594;28;20062;-71
2022/06/03 08:57:49;;;;;;;4.47;1.90;;;16.80;99.90;;;;;;4972576;28;20077;-71
2022/06/03 09:00:25;;;;;;;4.00;1.90;;;16.80;99.90;;;;;;4972769;28;20134;-71
2022/06/03 09:03:12;;;;;;;4.40;2.00;;;16.90;99.90;;;;;;4972605;28;20046;-71
2022/06/03 09:05:46;;;;;;;4.43;1.63;;;17.00;99.90;;;;;;4972537;28;20055;-73
2022/06/03 09:08:16;;;;;;;3.33;1.80;;;17.00;99.90;;;;;;4972544;28;20059;-72
2022/06/03 09:10:59;;;;;;;4.03;2.08;;;17.10;99.90;;;;;;4974626;28;20062;-71
2022/06/03 09:13:27;;;;;;;3.63;1.70;;;17.10;99.90;;;;;;4991985;28;20047;-71
2022/06/03 09:15:54;;;;;;;2.42;1.70;;;17.20;99.90;;;;;;4991873;28;20218;-72
2022/06/03 09:18:48;;;;;;;3.42;1.65;;;17.60;99.90;;;;;;4992840;28;20506;-71
2022/06/03 09:21:25;;;;;;;3.22;1.70;;;17.30;99.90;;;;;;4989753;28;20054;-71
2022/06/03 09:23:57;;;;;;;4.95;1.42;;;17.40;99.90;;;;;;4988054;28;20501;-74
2022/06/03 09:26:36;;;;;;;2.88;1.63;;;17.40;99.90;;;;;;4995650;28;20085;-72
2022/06/03 09:29:05;;;;;;;4.60;2.10;;;17.50;99.90;;;;;;4995516;28;20511;-70
2022/06/03 09:31:35;;;;;;;2.42;1.67;;;17.60;99.90;;;;;;5013547;28;20406;-72
2022/06/03 09:34:01;;;;;;;3.42;1.60;;;17.60;99.90;;;;;;4995310;28;20050;-70
2022/06/03 09:36:28;;;;;;;;;;;18.00;99.90;;;;;;4995524;28;20089;-72
2022/06/03 09:38:59;;;;;;;2.90;1.30;;;17.70;99.90;;;;;;5013453;28;19928;-71
2022/06/03 09:41:31;;;;;;;2.35;1.33;;;17.80;99.90;;;;;;5013228;28;20045;-71
2022/06/03 09:43:58;;;;;;;4.80;1.77;;;17.90;99.90;;;;;;5013163;28;20050;-73
2022/06/03 09:46:28;;;;;;;4.85;2.00;;;17.90;99.90;;;;;;4996028;28;20054;-71
2022/06/03 09:48:56;;;;;;;2.03;1.40;;;18.00;99.90;;;;;;5013327;28;20060;-71
2022/06/03 09:51:55;;;;;;;4.07;1.88;;;18.00;99.90;;;;;;5013265;28;20096;-71
2022/06/03 09:54:26;;;;;;;3.05;1.42;;;18.10;99.90;;;;;;5006426;28;20042;-70
2022/06/03 09:57:11;;;;;;;3.10;1.33;;;18.10;99.90;;;;;;5004920;28;20085;-70
2022/06/03 09:59:43;;;;;;;2.47;1.20;;;18.10;99.90;;;;;;5011890;28;20128;-69
2022/06/03 10:02:10;;;;;;;3.88;1.80;;;18.10;99.90;;;;;;5011534;28;20053;-71
2022/06/03 10:04:54;;;;;;;4.65;1.77;;;18.20;99.90;;;;;;4995074;28;20050;-71
2022/06/03 10:07:25;;;;;;;3.13;1.50;;;18.30;99.90;;;;;;5012980;28;20120;-73
2022/06/03 10:12:49;;;;;;;3.15;2.03;;;18.30;99.90;;;;;;5012716;28;20122;-72
2022/06/03 10:15:42;;;;;;;4.07;2.28;;;18.40;99.90;;;;;;5012983;28;20133;-71
2022/06/03 10:18:25;;;;;;;3.42;1.88;;;18.40;99.90;;;;;;5012709;28;20054;-70
2022/06/03 10:20:56;;;;;;;3.25;2.47;;;18.30;99.90;;;;;;4979171;28;20057;-71
2022/06/03 10:23:28;;;;;;;7.97;1.35;;;18.30;99.90;;;;;;5012656;28;20046;-73
2022/06/03 10:26:01;;;;;;;2.47;1.60;;;18.30;99.90;;;;;;5004444;28;20046;-71
2022/06/03 10:28:40;;;;;;;3.17;1.42;;;18.40;99.90;;;;;;5012505;28;20089;-71
2022/06/03 10:50:00;;;;;;;2.58;1.15;;;18.50;99.90;;;;;;5012023;28;20093;-71
2022/06/03 11:01:28;;;;;;;6.20;1.58;;;18.40;99.90;;;;;;4998280;28;20156;-73
2022/06/03 11:03:56;;;;;;;2.70;1.38;;;18.50;99.90;;;;;;5015219;28;20046;-73
2022/06/03 11:06:27;;;;;;;3.47;1.73;;;18.50;99.90;;;;;;5015414;28;20129;-71
2022/06/03 11:09:00;;;;;;;3.70;0.98;;;18.50;99.90;;;;;;5035045;28;20061;-72
2022/06/03 11:11:44;;;;;;;2.70;1.20;;;18.50;99.90;;;;;;5032966;28;20053;-73
2022/06/03 11:14:36;;;;;;;2.13;1.00;;;18.50;99.90;;;;;;5017961;28;20045;-71
2022/06/03 11:17:20;;;;;;;1.88;1.30;;;18.50;99.90;;;;;;5027084;28;20058;-70
2022/06/03 11:19:49;;;;;;;3.40;1.13;;;18.50;99.90;;;;;;5015324;28;20077;-72
2022/06/03 11:22:32;;;;;;;4.53;1.30;;;18.50;99.90;;;;;;5015413;28;20125;-71
2022/06/03 11:25:03;;;;;;;3.35;1.60;;;18.50;99.90;;;;;;4995318;28;20049;-73
2022/06/03 11:27:43;;;;;;;2.05;1.40;;;18.50;99.90;;;;;;5015934;28;20446;-71
2022/06/03 11:30:19;;;;;;;2.17;1.17;;;18.60;99.90;;;;;;5001950;28;20053;-72
2022/06/03 11:32:51;;;;;;;52.13;6.25;;;18.60;99.90;;;;;;5019909;28;20598;-72
2022/06/03 11:35:38;;;;;;;11.35;2.20;;;18.60;99.90;;;;;;5015032;28;20046;-71
2022/06/03 11:45:14;;;;;;;35.97;5.18;;;18.70;99.80;;;;;;5016216;28;20141;-72
2022/06/03 11:48:05;;;;;;;53.47;6.88;;;18.70;99.90;;;;;;5014592;28;20133;-72
2022/06/03 11:50:36;;;;;;;62.25;9.38;;;18.80;99.90;;;;;;5034615;28;20056;-71
2022/06/03 11:53:05;;;;;;;2.63;1.10;;;18.80;99.90;;;;;;5034336;28;20041;-71
2022/06/03 11:55:33;;;;;;;2.92;1.23;;;18.80;99.90;;;;;;5034419;28;20107;-71
2022/06/03 11:58:17;;;;;;;2.75;1.30;;;18.80;99.90;;;;;;5008549;28;20058;-71
2022/06/03 12:01:04;;;;;;;2.15;1.10;;;18.80;99.50;;;;;;5013349;28;20068;-72
2022/06/03 12:03:39;;;;;;;3.13;1.52;;;18.80;99.90;;;;;;5015523;28;20053;-70
2022/06/03 12:06:43;;;;;;;2.40;1.30;;;18.90;99.90;;;;;;5013804;28;20552;-71
2022/06/03 12:09:52;;;;;;;2.50;1.08;;;18.90;99.90;;;;;;4923897;28;20063;-72
2022/06/03 12:15:53;;;;;;;1.35;1.00;;;18.80;99.90;;;;;;4953723;29;20150;-70
2022/06/03 12:18:35;;;;;;;2.08;1.15;;;18.80;99.90;;;;;;4953846;29;20067;-70
2022/06/03 12:21:14;;;;;;;2.92;1.10;;;18.90;99.90;;;;;;4937839;29;20138;-72
2022/06/03 12:23:41;;;;;;;2.40;1.15;;;18.90;99.90;;;;;;4953717;29;20059;-71
2022/06/03 12:26:18;;;;;;;3.30;1.10;;;18.90;99.90;;;;;;4937517;29;20063;-71
2022/06/03 12:28:50;;;;;;;3.00;0.93;;;19.00;99.90;;;;;;4953565;29;20511;-73
2022/06/03 12:31:34;;;;;;;2.55;1.00;;;19.00;99.90;;;;;;4953771;28;20047;-73
2022/06/03 12:34:14;;;;;;;4.75;1.23;;;19.00;99.90;;;;;;4969677;28;20059;-71
2022/06/03 12:36:52;;;;;;;3.40;1.30;;;19.00;99.90;;;;;;4953491;29;20078;-71
2022/06/03 12:39:24;;;;;;;1.63;1.10;;;19.00;99.90;;;;;;4937684;29;20255;-70
2022/06/03 12:41:51;;;;;;;1.95;1.02;;;19.00;99.90;;;;;;4937346;29;20093;-71
2022/06/03 12:44:39;;;;;;;1.67;1.17;;;19.00;99.90;;;;;;4937283;29;20412;-71
2022/06/03 12:47:26;;;;;;;1.95;1.10;;;19.00;99.80;;;;;;5019699;28;20453;-71
2022/06/03 12:49:56;;;;;;;2.45;1.25;;;19.00;99.90;;;;;;5033466;28;20071;-71
2022/06/03 12:52:26;;;;;;;3.75;1.52;;;19.00;99.90;;;;;;5033250;28;20045;-71
2022/06/03 12:55:28;;;;;;;1.33;1.00;;;19.00;99.90;;;;;;5032909;28;20431;-74
2022/06/03 12:58:13;;;;;;;3.00;1.00;;;19.00;99.90;;;;;;4956055;28;20085;-71
2022/06/03 13:00:57;;;;;;;3.55;1.17;;;19.00;99.90;;;;;;4972403;28;20062;-71
2022/06/03 13:03:25;;;;;;;2.35;1.02;;;19.00;98.20;;;;;;4972130;28;20046;-70
2022/06/03 13:05:56;;;;;;;2.88;1.13;;;19.00;99.90;;;;;;4971863;28;20051;-72
2022/06/03 13:08:30;;;;;;;1.23;0.88;;;19.10;99.80;;;;;;4972243;28;20090;-74
2022/06/03 13:11:21;;;;;;;4.47;1.08;;;19.10;99.90;;;;;;4964510;28;20145;-71
2022/06/03 13:14:13;;;;;;;2.45;1.25;;;19.20;99.00;;;;;;4956171;28;20556;-72
2022/06/03 13:16:44;;;;;;;3.67;1.40;;;19.20;99.80;;;;;;4956191;28;20061;-71
2022/06/03 13:19:18;;;;;;;2.50;1.02;;;19.20;96.40;;;;;;4971966;28;20511;-74
2022/06/03 13:22:09;;;;;;;3.00;1.10;;;19.20;98.10;;;;;;4972032;28;20059;-72
2022/06/03 13:24:41;;;;;;;3.28;1.00;;;19.30;97.00;;;;;;4972013;28;20472;-70
2022/06/03 13:27:14;;;;;;;1.38;0.90;;;19.20;95.40;;;;;;4972122;28;20059;-71
2022/06/03 13:29:53;;;;;;;3.80;1.50;;;19.20;97.70;;;;;;4955912;28;20539;-71
2022/06/03 13:32:47;;;;;;;3.42;1.50;;;19.30;96.30;;;;;;4956809;28;20101;-71
2022/06/03 13:35:27;;;;;;;1.85;1.33;;;19.20;95.60;;;;;;5022403;28;20099;-70
2022/06/03 13:37:59;;;;;;;4.70;1.52;;;19.30;97.70;;;;;;5032930;28;20049;-71
2022/06/03 13:40:27;;;;;;;3.00;1.45;;;19.30;97.10;;;;;;5015359;28;20046;-71
2022/06/03 13:43:00;;;;;;;2.42;1.20;;;19.30;97.20;;;;;;5032663;28;20046;-71
2022/06/03 13:45:46;;;;;;;1.50;1.08;;;19.30;93.10;;;;;;5032844;28;20081;-71
2022/06/03 13:48:56;;;;;;;2.22;1.40;;;19.30;96.20;;;;;;5032622;28;20046;-71
2022/06/03 13:51:28;;;;;;;2.72;1.17;;;19.30;92.40;;;;;;4955756;28;20046;-71
2022/06/03 13:54:00;;;;;;;2.95;1.40;;;19.30;95.80;;;;;;4955982;28;20053;-70
2022/06/03 13:56:30;;;;;;;1.60;0.88;;;19.40;95.30;;;;;;4971456;28;20063;-71
2022/06/03 13:59:00;;;;;;;1.25;0.93;;;19.40;95.00;;;;;;4971694;28;20077;-71
2022/06/03 14:01:26;;;;;;;3.22;0.90;;;19.40;92.40;;;;;;4971788;28;20141;-70
2022/06/03 14:04:02;;;;;;;1.58;0.98;;;19.40;92.30;;;;;;4971593;28;20558;-71
2022/06/03 14:06:36;;;;;;;3.28;0.93;;;19.40;91.10;;;;;;4974936;28;20051;-71
2022/06/03 14:09:21;;;;;;;1.80;1.00;;;19.50;92.00;;;;;;4975293;28;20058;-71
2022/06/03 14:12:07;;;;;;;2.03;1.00;;;19.40;90.20;;;;;;4975749;28;20051;-71
2022/06/03 14:14:56;;;;;;;3.97;1.20;;;19.40;93.30;;;;;;4975401;28;20446;-72
2022/06/03 14:17:54;;;;;;;3.30;1.30;;;19.50;94.20;;;;;;4975499;28;20082;-71
2022/06/03 14:20:27;;;;;;;3.83;1.15;;;19.50;95.10;;;;;;4975306;28;20057;-71
2022/06/03 14:23:11;;;;;;;4.40;0.80;;;19.50;93.80;;;;;;5021514;28;20049;-70
2022/06/03 14:25:51;;;;;;;3.85;0.70;;;19.50;90.40;;;;;;5036008;28;20045;-71
2022/06/03 14:28:26;;;;;;;2.53;0.70;;;19.60;91.10;;;;;;5018715;28;20041;-71
2022/06/03 14:31:11;;;;;;;1.00;0.68;;;19.60;91.30;;;;;;5036365;28;20060;-72
2022/06/03 14:33:43;;;;;;;2.65;0.65;;;19.70;92.10;;;;;;5018546;28;20119;-73
2022/06/03 14:36:12;;;;;;;0.98;0.70;;;19.70;91.70;;;;;;5035940;28;20556;-75
2022/06/03 14:39:01;;;;;;;2.05;0.98;;;19.70;91.20;;;;;;5035987;28;20045;-75
2022/06/03 14:41:31;;;;;;;1.67;0.77;;;19.70;89.60;;;;;;5036050;28;20050;-71
2022/06/03 14:43:59;;;;;;;1.00;0.57;;;19.70;86.60;;;;;;5035871;28;20510;-72
2022/06/03 14:46:37;;;;;;;3.65;0.88;;;19.70;84.30;;;;;;5018525;28;20501;-71
2022/06/03 14:49:08;;;;;;;1.70;0.80;;;19.70;84.90;;;;;;5019741;28;20124;-72
2022/06/03 14:51:42;;;;;;;2.05;0.75;;;19.70;85.80;;;;;;5050935;28;20045;-71
2022/06/03 14:54:15;;;;;;;1.00;0.60;;;19.70;83.70;;;;;;5038276;28;20477;-70
2022/06/03 14:56:44;;;;;;;1.58;0.63;;;19.70;83.00;;;;;;5047356;28;20507;-71